Gelnhausen Airport


Codes: EDFG/
Name: Gelnhausen Airport
City: Gelnhausen
Country: Germany
Elevation: 446 ft.

Photos at Gelnhausen Airport


   Photos courtesy of SpottingLog. You can add your own sightings and photos by signing up for a free trial today.



No photos found.

Weather at Gelnhausen Airport


Time (UTC)DescriptionTempratureWindCloud coverageVisibilityPressureHumidity
23-May-2024 21:00Light Rain16°C2 mph, SW72%10000m1016hPa82%
24-May-2024 00:00Light Rain14°C2 mph, S75%10000m1017hPa89%
24-May-2024 03:00Light Rain12°C2 mph, SW95%10000m1017hPa97%
24-May-2024 06:00Moderate Rain12°C4 mph, NW97%10000m1017hPa98%
24-May-2024 09:00Moderate Rain12°C2 mph, W100%7655m1018hPa97%
24-May-2024 12:00Light Rain13°C2 mph, SW100%10000m1018hPa95%
24-May-2024 15:00Light Rain15°C7 mph, SW100%10000m1017hPa86%
24-May-2024 18:00Overcast Clouds15°C4 mph, SW96%10000m1017hPa85%
24-May-2024 21:00Broken Clouds11°C2 mph, SW57%10000m1018hPa94%
25-May-2024 00:00Scattered Clouds10°C2 mph, E31%10000m1018hPa95%
25-May-2024 03:00Broken Clouds9°C0 mph, SE51%10000m1018hPa95%
25-May-2024 06:00Broken Clouds13°C2 mph, SE63%10000m1018hPa86%
25-May-2024 09:00Broken Clouds18°C4 mph, SW83%10000m1018hPa70%
25-May-2024 12:00Broken Clouds21°C4 mph, W62%10000m1017hPa55%
25-May-2024 15:00Broken Clouds21°C2 mph, W79%10000m1016hPa54%
25-May-2024 18:00Light Rain18°C2 mph, SE89%10000m1017hPa73%
25-May-2024 21:00Scattered Clouds13°C2 mph, SE42%10000m1018hPa86%
26-May-2024 00:00Scattered Clouds12°C2 mph, E26%10000m1018hPa91%
26-May-2024 03:00Broken Clouds11°C2 mph, SE66%10000m1018hPa92%
26-May-2024 06:00Broken Clouds15°C2 mph, SE83%10000m1019hPa81%
26-May-2024 09:00Broken Clouds20°C4 mph, SW70%10000m1019hPa62%
26-May-2024 12:00Overcast Clouds22°C9 mph, SW85%10000m1018hPa53%
26-May-2024 15:00Overcast Clouds21°C7 mph, SW100%10000m1018hPa61%
26-May-2024 18:00Light Rain18°C4 mph, SW99%10000m1018hPa79%
26-May-2024 21:00Light Rain14°C4 mph, S98%10000m1019hPa90%
27-May-2024 00:00Overcast Clouds13°C4 mph, SE99%10000m1019hPa96%
27-May-2024 03:00Overcast Clouds13°C2 mph, SE100%10000m1019hPa95%
27-May-2024 06:00Overcast Clouds16°C2 mph, SE100%10000m1019hPa90%
27-May-2024 09:00Light Rain19°C4 mph, SW98%9280m1018hPa80%
27-May-2024 12:00Moderate Rain15°C7 mph, W99%10000m1019hPa98%
27-May-2024 15:00Light Rain15°C2 mph, S100%10000m1018hPa94%
27-May-2024 18:00Light Rain14°C2 mph, S100%10000m1018hPa95%
27-May-2024 21:00Broken Clouds13°C2 mph, SW82%10000m1017hPa97%
28-May-2024 00:00Moderate Rain12°C4 mph, SW91%7281m1019hPa99%
28-May-2024 03:00Light Rain11°C7 mph, SW100%10000m1018hPa98%
28-May-2024 06:00Broken Clouds12°C7 mph, W74%10000m1020hPa91%
28-May-2024 09:00Light Rain15°C7 mph, SW83%10000m1019hPa70%
28-May-2024 12:00Light Rain17°C9 mph, SW77%10000m1018hPa61%
28-May-2024 15:00Light Rain17°C11 mph, SW52%10000m1018hPa68%
28-May-2024 18:00Light Rain15°C9 mph, SW35%10000m1017hPa79%